Terminal Aerodrome Forecast
Issued by NWS

Home | Current Version | Previous Version | Text Only | Print | Product List | Glossary On
Versions: 1 2 3 4 5 6 7 8 9 10 11 12 13 14 15 16 17 18 19
000
FTUS43 KSGF 282300
TAFBBG
TAF
KBBG 282320Z 2900/2924 12007KT P6SM SCT025 BKN100
      TEMPO 2900/2902 BKN025
     FM290300 15005KT P6SM SCT100
     FM290800 VRB03KT 4SM BR SCT010 BKN100 WS020/23030KT
      TEMPO 2910/2914 4SM BR OVC010
     FM291400 17006KT P6SM VCSH SCT025 OVC060=

USA.gov is the U.S. government's official web portal to all federal, state and local government web resources and services.